Time;durP1;ratioP1;P1;durP2;ratioP2;P2;SDS_P1;SDS_P2;PMS_P1;PMS_P2;Temp;Humidity;BMP_temperature;BMP_pressure;BME280_temperature;BME280_humidity;BME280_pressure;Samples;Min_cycle;Max_cycle;Signal;HPM_P1;HPM_P2
2022/08/16 00:02:18;;;;;;;11.18;7.82;;;;;;;22.71;62.31;100592.72;5000868;28;20042;-53
2022/08/16 00:04:43;;;;;;;11.85;8.07;;;;;;;22.69;62.51;100590.16;5003978;28;20083;-52
2022/08/16 00:07:08;;;;;;;12.35;7.43;;;;;;;22.68;62.30;100587.56;4998904;28;20038;-53
2022/08/16 00:09:34;;;;;;;8.90;7.43;;;;;;;22.58;62.78;100591.34;5003240;28;20390;-54
2022/08/16 00:12:00;;;;;;;11.10;7.90;;;;;;;22.62;62.76;100588.56;5001702;28;20026;-55
2022/08/16 00:14:29;;;;;;;9.73;7.85;;;;;;;22.59;62.52;100598.28;5007369;28;20049;-55
2022/08/16 00:16:55;;;;;;;10.65;8.15;;;;;;;22.53;62.96;100595.81;5002169;28;20026;-53
2022/08/16 00:19:24;;;;;;;11.52;8.00;;;;;;;22.63;62.97;100581.56;5003251;28;20124;-55
2022/08/16 00:21:51;;;;;;;9.10;8.00;;;;;;;22.57;62.98;100585.25;5002594;28;20029;-54
2022/08/16 00:24:17;;;;;;;11.05;8.27;;;;;;;22.52;63.05;100591.50;5001938;28;20410;-55
2022/08/16 00:26:43;;;;;;;8.70;7.80;;;;;;;22.44;63.40;100594.28;5002043;28;20025;-54
2022/08/16 00:29:09;;;;;;;9.50;7.95;;;;;;;22.47;63.18;100599.47;4999198;28;20036;-55
2022/08/16 00:31:35;;;;;;;10.00;8.45;;;;;;;22.52;63.12;100604.59;5003170;28;20030;-54
2022/08/16 00:34:01;;;;;;;9.35;8.18;;;;;;;22.48;63.51;100602.03;5000592;28;20063;-54
2022/08/16 00:36:26;;;;;;;10.45;8.40;;;;;;;22.48;63.48;100614.28;5003488;28;20033;-54
2022/08/16 00:38:52;;;;;;;11.85;8.38;;;;;;;22.42;63.35;100606.56;4999551;28;20026;-52
2022/08/16 00:41:18;;;;;;;11.77;9.18;;;;;;;22.41;63.35;100604.84;5000614;28;20034;-49
2022/08/16 00:43:43;;;;;;;10.48;9.40;;;;;;;22.35;64.00;100613.72;5002249;28;20045;-55
2022/08/16 00:46:26;;;;;;;12.65;9.65;;;;;;;22.35;63.42;100611.09;5001584;28;20065;-54
2022/08/16 00:48:52;;;;;;;13.88;9.57;;;;;;;22.24;64.14;100615.75;5001355;28;20617;-54
2022/08/16 00:51:20;;;;;;;11.32;9.75;;;;;;;22.24;64.25;100614.88;5001707;28;20037;-55
2022/08/16 00:53:47;;;;;;;11.23;8.65;;;;;;;22.16;64.34;100615.06;5002898;28;20030;-53
2022/08/16 00:56:16;;;;;;;12.45;10.20;;;;;;;22.11;64.13;100607.31;4999773;28;20029;-52
2022/08/16 00:58:43;;;;;;;;;;;;;;;22.41;62.63;100618.81;5002865;28;20458;-51
2022/08/16 01:01:10;;;;;;;13.85;9.90;;;;;;;22.09;64.40;100613.47;5002745;28;19925;-55
2022/08/16 01:03:38;;;;;;;11.15;9.90;;;;;;;22.07;64.43;100617.84;5001871;28;20038;-53
2022/08/16 01:06:05;;;;;;;13.50;10.18;;;;;;;22.00;64.63;100613.66;4999435;28;20037;-52
2022/08/16 01:08:34;;;;;;;12.88;9.65;;;;;;;22.02;64.58;100614.47;5001109;28;20042;-54
2022/08/16 01:11:00;;;;;;;13.38;9.70;;;;;;;21.98;64.77;100616.31;5001828;28;20061;-55
2022/08/16 01:13:28;;;;;;;13.00;9.52;;;;;;;21.92;65.40;100617.31;5001264;28;20049;-55
2022/08/16 01:16:01;;;;;;;11.82;9.25;;;;;;;21.94;64.81;100612.91;5002352;28;20414;-54
2022/08/16 01:18:50;;;;;;;10.50;9.35;;;;;;;21.96;64.18;100610.25;5000682;28;20044;-55
2022/08/16 01:21:35;;;;;;;9.82;8.82;;;;;;;21.91;65.04;100609.50;5001117;28;20034;-50
2022/08/16 01:24:41;;;;;;;10.10;9.05;;;;;;;21.97;64.43;100613.75;5002327;28;20035;-55
2022/08/16 01:27:12;;;;;;;11.82;9.65;;;;;;;21.77;65.40;100620.25;4979549;28;20148;-55
2022/08/16 01:29:53;;;;;;;12.65;9.25;;;;;;;21.82;65.07;100610.56;4978443;28;20034;-54
2022/08/16 01:32:18;;;;;;;12.38;9.77;;;;;;;21.68;66.07;100607.41;4992014;28;20046;-54
2022/08/16 01:34:45;;;;;;;13.52;10.02;;;;;;;21.77;65.89;100608.94;4999769;28;20064;-54
2022/08/16 01:37:12;;;;;;;12.20;10.43;;;;;;;21.71;66.13;100616.91;4999136;28;20030;-54
2022/08/16 01:39:37;;;;;;;11.57;9.68;;;;;;;21.71;66.02;100612.53;5002292;28;20065;-54
2022/08/16 01:42:06;;;;;;;12.55;10.13;;;;;;;21.64;66.30;100609.19;5002048;28;20070;-55
2022/08/16 01:44:31;;;;;;;11.95;10.00;;;;;;;21.65;66.16;100608.31;5002345;28;20034;-50
2022/08/16 01:46:57;;;;;;;11.65;10.45;;;;;;;21.65;66.26;100610.06;4999888;28;20050;-54
2022/08/16 01:49:32;;;;;;;11.93;10.52;;;;;;;21.68;66.07;100608.25;5001916;28;20041;-54
2022/08/16 01:52:12;;;;;;;13.00;10.30;;;;;;;21.69;66.10;100609.09;5001153;28;20021;-54
2022/08/16 01:54:38;;;;;;;12.98;10.50;;;;;;;21.55;66.52;100613.78;5001017;28;20041;-53
2022/08/16 01:57:04;;;;;;;11.80;10.45;;;;;;;21.53;66.83;100613.78;4999750;28;20593;-54
2022/08/16 01:59:31;;;;;;;12.63;9.90;;;;;;;21.53;66.90;100610.31;5000446;28;20029;-53
2022/08/16 02:01:57;;;;;;;14.25;10.65;;;;;;;21.46;67.29;100608.72;5002812;28;20759;-52
2022/08/16 02:04:24;;;;;;;12.07;10.00;;;;;;;21.41;67.33;100607.06;4999283;28;20084;-55
2022/08/16 02:06:50;;;;;;;12.10;10.20;;;;;;;21.40;67.28;100607.97;5001087;28;20879;-53
2022/08/16 02:09:18;;;;;;;13.75;10.50;;;;;;;21.41;67.52;100603.59;5001721;28;20026;-55
2022/08/16 02:11:47;;;;;;;13.40;10.60;;;;;;;21.38;67.97;100615.00;5003534;28;20133;-52
2022/08/16 02:14:12;;;;;;;12.68;11.30;;;;;;;21.37;68.04;100605.44;5003399;28;20037;-55
2022/08/16 02:16:39;;;;;;;18.58;11.43;;;;;;;21.44;67.76;100605.31;5004352;28;20422;-53
2022/08/16 02:19:05;;;;;;;15.85;12.15;;;;;;;21.38;67.92;100601.06;5003471;28;20402;-55
2022/08/16 02:21:30;;;;;;;14.13;10.93;;;;;;;21.39;68.04;100606.25;5002671;28;20033;-53
2022/08/16 02:23:56;;;;;;;17.65;11.85;;;;;;;21.36;67.52;100601.09;5004645;28;20030;-55
2022/08/16 02:26:22;;;;;;;13.52;11.35;;;;;;;21.31;67.88;100604.69;5006725;28;20022;-55
2022/08/16 02:28:48;;;;;;;15.02;11.25;;;;;;;21.27;68.39;100600.38;5005254;28;20061;-53
2022/08/16 02:31:14;;;;;;;12.65;11.35;;;;;;;21.23;68.33;100598.69;5003805;28;20034;-55
2022/08/16 02:33:41;;;;;;;13.68;11.82;;;;;;;21.15;68.15;100601.47;5005314;28;20030;-53
2022/08/16 02:36:08;;;;;;;14.95;11.85;;;;;;;21.07;68.59;100606.84;5003693;28;20402;-55
2022/08/16 02:38:33;;;;;;;13.35;11.95;;;;;;;21.05;68.71;100602.53;5003332;28;20044;-55
2022/08/16 02:41:01;;;;;;;13.07;10.98;;;;;;;21.02;68.73;100606.09;5003320;28;20148;-52
2022/08/16 02:43:28;;;;;;;13.80;12.27;;;;;;;21.02;69.05;100602.59;5006428;28;20534;-55
2022/08/16 02:45:57;;;;;;;15.82;12.05;;;;;;;21.02;68.78;100613.91;5005743;28;20478;-55
2022/08/16 02:48:23;;;;;;;18.85;11.90;;;;;;;20.95;69.10;100609.72;5003636;28;20133;-55
2022/08/16 02:50:49;;;;;;;13.70;11.63;;;;;;;21.00;69.11;100607.00;5003794;28;20544;-50
2022/08/16 02:53:15;;;;;;;14.23;11.60;;;;;;;20.99;69.38;100606.16;5002054;28;20034;-53
2022/08/16 02:55:40;;;;;;;13.95;11.50;;;;;;;20.99;69.17;100600.94;5005365;28;20041;-52
2022/08/16 02:58:06;;;;;;;12.85;11.18;;;;;;;20.99;69.21;100606.16;5004719;28;20018;-54
2022/08/16 03:00:31;;;;;;;16.60;12.07;;;;;;;21.01;68.59;100599.13;5004012;28;20042;-55
2022/08/16 03:02:57;;;;;;;15.88;11.35;;;;;;;20.88;69.52;100592.41;5002655;28;20050;-53
2022/08/16 03:05:24;;;;;;;19.45;12.02;;;;;;;20.94;69.02;100601.91;5005278;28;20120;-55
2022/08/16 03:07:49;;;;;;;13.88;11.50;;;;;;;20.96;69.33;100600.97;5001128;28;20515;-54
2022/08/16 03:10:16;;;;;;;12.73;11.35;;;;;;;20.83;69.32;100595.13;5005775;28;20041;-53
2022/08/16 03:12:43;;;;;;;14.93;11.60;;;;;;;20.83;69.46;100594.25;5002065;28;20034;-54
2022/08/16 03:15:10;;;;;;;16.17;12.15;;;;;;;20.75;69.24;100591.78;5003222;28;20607;-55
2022/08/16 03:17:35;;;;;;;12.85;11.52;;;;;;;20.73;69.21;100588.31;5005957;28;20037;-53
2022/08/16 03:20:04;;;;;;;15.95;12.00;;;;;;;20.73;69.51;100595.28;5002300;28;20060;-52
2022/08/16 03:22:29;;;;;;;15.10;12.13;;;;;;;20.73;69.64;100590.06;5005547;28;20519;-48
2022/08/16 03:24:59;;;;;;;13.77;12.27;;;;;;;20.71;69.87;100590.09;5004395;28;20112;-52
2022/08/16 03:27:26;;;;;;;15.73;12.70;;;;;;;20.73;69.42;100593.53;5003116;28;20577;-54
2022/08/16 03:29:51;;;;;;;15.52;12.93;;;;;;;20.68;69.30;100587.53;5004643;28;20026;-55
2022/08/16 03:32:17;;;;;;;19.13;12.48;;;;;;;20.64;69.96;100590.25;5002845;28;20076;-55
2022/08/16 03:34:42;;;;;;;18.42;11.85;;;;;;;20.65;69.55;100595.44;5003780;28;20129;-54
2022/08/16 03:37:07;;;;;;;14.32;12.80;;;;;;;20.60;69.78;100592.03;5002576;28;20026;-52
2022/08/16 03:39:33;;;;;;;15.88;12.45;;;;;;;20.62;69.73;100601.56;5003758;28;20452;-54
2022/08/16 03:41:58;;;;;;;17.80;12.75;;;;;;;20.62;70.01;100598.09;5003172;28;20030;-54
2022/08/16 03:44:23;;;;;;;17.10;12.65;;;;;;;20.58;69.84;100610.38;5000806;28;20057;-55
2022/08/16 03:46:49;;;;;;;16.38;12.90;;;;;;;20.59;70.00;100608.63;5002411;28;20046;-54
2022/08/16 03:49:14;;;;;;;15.38;13.05;;;;;;;20.56;69.67;100606.03;5005134;28;20038;-52
2022/08/16 03:51:41;;;;;;;16.10;12.73;;;;;;;20.51;69.89;100613.97;5004732;28;20113;-53
2022/08/16 03:54:07;;;;;;;18.40;12.15;;;;;;;20.51;69.83;100615.72;5001928;28;20053;-49
2022/08/16 03:56:32;;;;;;;16.90;12.90;;;;;;;20.44;70.42;100616.66;5002603;28;20076;-55
2022/08/16 03:58:58;;;;;;;15.50;13.07;;;;;;;20.46;69.85;100615.78;5003232;28;20112;-55
2022/08/16 04:01:25;;;;;;;15.68;13.50;;;;;;;20.44;70.17;100622.75;5003741;28;20487;-51
2022/08/16 04:03:51;;;;;;;14.18;12.57;;;;;;;20.46;70.08;100622.78;5001156;28;20030;-49
2022/08/16 04:06:16;;;;;;;14.68;12.52;;;;;;;20.43;70.55;100630.59;5002570;28;20040;-55
2022/08/16 04:08:42;;;;;;;14.55;13.00;;;;;;;20.38;70.48;100628.06;5003195;28;20505;-53
2022/08/16 04:11:07;;;;;;;15.40;13.02;;;;;;;20.38;70.59;100622.84;5002050;28;21165;-54
2022/08/16 04:13:33;;;;;;;14.70;12.48;;;;;;;20.41;70.44;100632.38;5004287;28;20034;-51
2022/08/16 04:16:01;;;;;;;15.32;12.73;;;;;;;20.34;71.11;100629.88;5001896;28;20622;-53
2022/08/16 04:18:26;;;;;;;17.83;12.98;;;;;;;20.37;71.04;100636.78;5003944;28;20080;-55
2022/08/16 04:20:53;;;;;;;18.42;13.68;;;;;;;20.39;70.81;100637.66;5001919;28;20116;-54
2022/08/16 04:23:19;;;;;;;16.48;13.85;;;;;;;20.32;70.90;100629.06;5002751;28;20158;-53
2022/08/16 04:25:45;;;;;;;18.35;14.07;;;;;;;20.38;71.04;100633.28;5000922;28;20026;-51
2022/08/16 04:28:12;;;;;;;17.73;13.75;;;;;;;20.35;70.93;100635.97;5004674;28;20112;-55
2022/08/16 04:30:38;;;;;;;17.30;13.52;;;;;;;20.36;70.87;100635.06;5003145;28;20063;-55
2022/08/16 04:33:04;;;;;;;16.40;13.93;;;;;;;20.36;70.89;100635.94;5005772;28;20415;-52
2022/08/16 04:35:30;;;;;;;15.45;13.80;;;;;;;20.32;71.03;100633.38;4998760;28;20109;-54
2022/08/16 04:37:55;;;;;;;16.58;13.32;;;;;;;20.35;71.41;100638.56;5001237;28;20069;-54
2022/08/16 04:40:22;;;;;;;16.50;14.10;;;;;;;20.35;71.31;100636.81;5002248;28;20037;-53
2022/08/16 04:42:49;;;;;;;16.83;14.27;;;;;;;20.35;70.97;100631.59;5000686;28;20025;-54
2022/08/16 04:45:16;;;;;;;16.58;14.48;;;;;;;20.30;71.39;100636.03;5003583;28;20402;-52
2022/08/16 04:47:43;;;;;;;17.38;14.50;;;;;;;20.29;71.50;100639.53;5000980;28;20056;-52
2022/08/16 04:50:23;;;;;;;16.40;14.35;;;;;;;20.34;71.36;100637.72;5003679;28;20034;-54
2022/08/16 04:52:50;;;;;;;18.58;14.52;;;;;;;20.25;72.02;100644.81;5002496;28;20029;-53
2022/08/16 04:55:22;;;;;;;17.13;14.55;;;;;;;20.30;71.97;100649.06;5001659;28;20490;-53
2022/08/16 04:57:49;;;;;;;17.70;14.85;;;;;;;20.30;71.97;100649.06;4997601;28;20034;-54
2022/08/16 05:00:18;;;;;;;15.95;14.25;;;;;;;20.28;72.41;100648.25;4999518;28;20053;-52
2022/08/16 05:02:44;;;;;;;17.83;15.95;;;;;;;20.26;72.25;100650.03;4996843;28;20030;-53
2022/08/16 05:05:10;;;;;;;19.13;15.10;;;;;;;20.26;72.85;100650.03;4999314;28;20041;-54
2022/08/16 05:07:36;;;;;;;17.05;15.02;;;;;;;20.25;72.92;100650.03;4998116;28;20148;-50
2022/08/16 05:10:05;;;;;;;21.10;15.38;;;;;;;20.32;72.21;100652.56;4992645;28;20204;-49
2022/08/16 05:12:30;;;;;;;20.55;16.42;;;;;;;20.30;72.33;100662.13;4994887;28;21046;-53
2022/08/16 05:14:56;;;;;;;16.50;14.70;;;;;;;20.28;72.62;100656.09;4993921;28;20041;-54
2022/08/16 05:17:21;;;;;;;18.25;15.25;;;;;;;20.27;72.50;100661.34;4998322;28;20545;-53
2022/08/16 05:19:47;;;;;;;19.25;15.95;;;;;;;20.30;72.54;100666.50;4997134;28;20033;-54
2022/08/16 05:22:13;;;;;;;19.95;16.13;;;;;;;20.33;72.65;100669.94;4995647;28;20453;-52
2022/08/16 05:24:39;;;;;;;18.50;16.50;;;;;;;20.35;72.45;100673.38;4998265;28;20136;-52
2022/08/16 05:27:04;;;;;;;17.48;15.68;;;;;;;20.41;72.53;100674.19;4993182;28;20183;-52
2022/08/16 05:29:29;;;;;;;19.83;16.80;;;;;;;20.39;72.52;100678.56;4997956;28;20041;-54
2022/08/16 05:31:55;;;;;;;23.17;17.20;;;;;;;20.41;72.62;100669.81;4990309;28;20037;-51
2022/08/16 05:34:20;;;;;;;18.15;15.63;;;;;;;20.41;72.80;100676.78;4991191;28;20466;-53
2022/08/16 05:36:48;;;;;;;21.88;17.17;;;;;;;20.41;72.97;100675.03;4997701;28;20398;-50
2022/08/16 05:39:13;;;;;;;20.42;16.90;;;;;;;20.47;72.92;100682.81;4994367;28;20033;-52
2022/08/16 05:41:39;;;;;;;21.83;17.08;;;;;;;20.45;73.02;100686.31;4998068;28;20033;-54
2022/08/16 05:44:04;;;;;;;20.08;16.50;;;;;;;20.46;72.93;100686.31;4999013;28;20126;-53
2022/08/16 05:46:30;;;;;;;21.77;16.90;;;;;;;20.45;72.79;100681.09;5001868;28;20034;-55
2022/08/16 05:48:55;;;;;;;20.75;17.40;;;;;;;20.50;72.81;100687.09;5002772;28;20115;-54
2022/08/16 05:51:20;;;;;;;21.00;16.38;;;;;;;20.50;73.26;100687.97;5005602;28;20052;-52
2022/08/16 05:53:45;;;;;;;20.73;16.77;;;;;;;20.55;73.03;100688.75;5002412;28;20033;-55
2022/08/16 05:56:11;;;;;;;24.75;18.17;;;;;;;20.51;73.47;100688.84;4999610;28;20026;-54
2022/08/16 05:58:37;;;;;;;24.40;16.10;;;;;;;20.55;72.84;100688.75;5002622;28;20037;-52
2022/08/16 06:01:03;;;;;;;19.65;16.02;;;;;;;20.58;72.93;100690.47;5003008;28;20038;-55
2022/08/16 06:03:29;;;;;;;23.00;16.65;;;;;;;20.63;72.84;100699.13;5002587;28;20030;-53
2022/08/16 06:05:55;;;;;;;21.73;16.60;;;;;;;20.65;72.49;100689.50;5001048;28;20041;-54
2022/08/16 06:08:20;;;;;;;19.38;16.50;;;;;;;20.74;71.72;100697.16;5003060;28;20065;-52
2022/08/16 06:10:46;;;;;;;23.65;16.80;;;;;;;20.77;71.58;100699.75;5003159;28;20375;-54
2022/08/16 06:13:11;;;;;;;20.50;16.20;;;;;;;20.88;71.67;100702.19;4998908;28;20087;-55
2022/08/16 06:15:37;;;;;;;19.23;16.10;;;;;;;20.93;71.62;100697.75;4998179;28;20038;-54
2022/08/16 06:18:02;;;;;;;18.92;16.17;;;;;;;21.00;70.39;100701.13;5002071;28;20029;-54
2022/08/16 06:20:28;;;;;;;22.65;15.85;;;;;;;21.05;70.67;100705.38;5003843;28;20076;-53
2022/08/16 06:22:55;;;;;;;19.63;15.13;;;;;;;21.12;70.16;100709.59;4998671;28;20553;-53
2022/08/16 06:25:21;;;;;;;18.65;16.65;;;;;;;21.19;70.57;100701.66;5003356;28;20618;-52
2022/08/16 06:27:47;;;;;;;18.90;15.43;;;;;;;21.23;70.21;100704.16;5002355;28;20096;-54
2022/08/16 06:30:12;;;;;;;19.08;15.95;;;;;;;21.34;70.37;100707.47;5000286;28;20026;-54
2022/08/16 06:32:38;;;;;;;20.70;16.48;;;;;;;21.41;70.28;100711.69;5001778;28;20034;-52
2022/08/16 06:35:04;;;;;;;20.63;15.60;;;;;;;21.49;70.30;100714.19;5000225;28;20631;-55
2022/08/16 06:37:29;;;;;;;21.02;16.05;;;;;;;21.58;70.73;100723.59;5001484;28;20061;-55
2022/08/16 06:39:54;;;;;;;21.70;16.00;;;;;;;21.66;68.91;100721.72;5004554;28;20041;-53
2022/08/16 06:42:20;;;;;;;19.20;15.73;;;;;;;21.76;68.70;100720.63;5002794;28;20192;-54
2022/08/16 06:44:45;;;;;;;21.73;16.13;;;;;;;21.78;68.92;100721.47;5001556;28;20097;-54
2022/08/16 06:47:12;;;;;;;18.25;14.93;;;;;;;21.89;68.34;100705.50;4998550;28;20042;-54
2022/08/16 06:49:37;;;;;;;19.50;16.00;;;;;;;21.99;67.35;100712.28;4998530;28;20045;-53
2022/08/16 06:52:03;;;;;;;17.90;15.68;;;;;;;22.02;67.82;100717.44;4996963;28;20413;-53
2022/08/16 06:54:28;;;;;;;18.83;15.15;;;;;;;22.10;67.91;100712.97;5001612;28;20063;-54
2022/08/16 06:56:54;;;;;;;20.75;15.60;;;;;;;22.13;67.06;100722.50;5004172;28;20026;-53
2022/08/16 06:59:19;;;;;;;18.77;15.38;;;;;;;22.26;66.78;100718.69;5004116;28;20824;-52
2022/08/16 07:01:44;;;;;;;19.25;15.35;;;;;;;22.29;66.39;100715.16;5003196;28;20040;-52
2022/08/16 07:04:10;;;;;;;23.08;16.00;;;;;;;22.43;66.54;100728.81;5004300;28;20038;-53
2022/08/16 07:06:35;;;;;;;21.05;16.42;;;;;;;22.45;65.99;100722.66;5003057;28;20510;-53
2022/08/16 07:09:01;;;;;;;17.25;15.45;;;;;;;22.53;66.14;100729.47;5004352;28;20034;-52
2022/08/16 07:11:26;;;;;;;18.77;16.10;;;;;;;22.61;65.36;100730.13;5001361;28;20037;-54
2022/08/16 07:13:52;;;;;;;19.08;15.07;;;;;;;22.70;65.81;100720.31;5002664;28;20022;-52
2022/08/16 07:16:18;;;;;;;20.58;16.00;;;;;;;22.75;65.40;100726.31;5005038;28;20057;-53
2022/08/16 07:18:44;;;;;;;21.58;16.35;;;;;;;22.83;65.17;100730.50;5000434;28;20691;-54
2022/08/16 07:21:11;;;;;;;23.27;15.63;;;;;;;22.91;65.27;100742.53;5003345;28;20045;-58
2022/08/16 07:23:40;;;;;;;21.48;15.95;;;;;;;23.02;65.11;100737.03;5003219;28;20394;-55
2022/08/16 07:26:10;;;;;;;23.85;15.57;;;;;;;23.08;64.71;100736.00;5004274;28;20076;-53
2022/08/16 07:28:36;;;;;;;19.42;15.55;;;;;;;23.15;64.07;100735.81;5002605;28;20042;-54
2022/08/16 07:31:02;;;;;;;21.38;15.75;;;;;;;23.25;64.89;100736.44;5004096;28;20064;-54
2022/08/16 07:33:29;;;;;;;18.25;14.68;;;;;;;23.32;64.34;100748.50;5002850;28;20073;-55
2022/08/16 07:35:56;;;;;;;20.08;15.00;;;;;;;23.40;63.97;100753.53;4997458;28;20061;-55
2022/08/16 07:38:25;;;;;;;17.42;14.45;;;;;;;23.48;64.23;100749.81;5001402;28;20034;-53
2022/08/16 07:40:50;;;;;;;18.13;14.52;;;;;;;23.53;63.92;100755.78;5002567;28;20040;-53
2022/08/16 07:43:15;;;;;;;18.15;15.27;;;;;;;23.61;63.48;100759.97;4999357;28;20042;-52
2022/08/16 07:45:41;;;;;;;18.20;13.55;;;;;;;23.72;63.42;100763.19;5002824;28;20045;-53
2022/08/16 07:48:06;;;;;;;18.55;14.07;;;;;;;23.77;63.03;100761.28;4998556;28;20060;-55
2022/08/16 07:50:31;;;;;;;16.30;12.32;;;;;;;23.82;61.85;100759.41;5003244;28;20034;-53
2022/08/16 07:52:57;;;;;;;16.92;13.40;;;;;;;23.90;62.39;100757.41;5002557;28;20510;-54
2022/08/16 07:55:22;;;;;;;16.48;12.60;;;;;;;23.97;62.13;100753.72;5000840;28;20128;-54
2022/08/16 07:57:48;;;;;;;14.68;13.10;;;;;;;24.01;62.42;100752.69;5002400;28;20072;-55
2022/08/16 08:00:14;;;;;;;15.85;12.85;;;;;;;24.09;61.45;100752.50;5003319;28;20030;-53
2022/08/16 08:02:39;;;;;;;17.40;12.20;;;;;;;24.19;61.99;100750.44;5005082;28;20034;-54
2022/08/16 08:05:05;;;;;;;13.63;11.93;;;;;;;24.23;61.42;100754.72;5004237;28;20044;-52
2022/08/16 08:07:31;;;;;;;17.67;12.13;;;;;;;24.30;61.35;100757.09;5001262;28;20698;-54
2022/08/16 08:09:57;;;;;;;13.95;11.13;;;;;;;24.44;60.24;100755.84;5004768;28;20036;-52
2022/08/16 08:12:23;;;;;;;13.63;11.25;;;;;;;24.44;60.36;100767.22;5005493;28;20075;-55
2022/08/16 08:14:48;;;;;;;15.73;10.88;;;;;;;24.51;60.27;100760.88;5001836;28;20448;-51
2022/08/16 08:17:16;;;;;;;15.52;10.27;;;;;;;24.57;59.33;100760.69;5001528;28;20026;-51
2022/08/16 08:19:41;;;;;;;14.98;11.95;;;;;;;24.56;59.06;100769.47;5007411;28;20516;-54
2022/08/16 08:22:08;;;;;;;14.63;11.50;;;;;;;24.66;58.31;100774.44;5002902;28;20105;-53
2022/08/16 08:24:36;;;;;;;13.15;9.90;;;;;;;24.73;58.73;100770.72;5005331;28;20045;-55
2022/08/16 08:27:03;;;;;;;12.45;8.90;;;;;;;24.82;58.88;100773.91;5005046;28;20115;-55
2022/08/16 08:29:29;;;;;;;11.95;9.30;;;;;;;24.86;58.70;100777.28;5002714;28;20040;-54
2022/08/16 08:31:55;;;;;;;13.80;9.60;;;;;;;24.97;58.29;100776.94;5002998;28;20034;-54
2022/08/16 08:34:21;;;;;;;13.95;9.88;;;;;;;25.06;58.46;100774.91;5001577;28;20087;-54
2022/08/16 08:36:47;;;;;;;12.35;9.07;;;;;;;25.14;57.81;100769.38;5001335;28;20034;-53
2022/08/16 08:39:14;;;;;;;13.45;9.95;;;;;;;25.18;57.85;100770.13;4998566;28;20450;-55
2022/08/16 08:41:43;;;;;;;13.07;9.30;;;;;;;25.31;56.98;100761.78;5003062;28;20046;-54
2022/08/16 08:44:10;;;;;;;12.85;9.05;;;;;;;25.31;57.11;100776.72;4995508;28;20056;-55
2022/08/16 08:46:36;;;;;;;10.55;8.13;;;;;;;25.33;56.71;100777.50;4997777;28;20026;-55
2022/08/16 08:49:02;;;;;;;8.88;7.82;;;;;;;25.46;55.85;100777.94;5002758;28;20038;-51
2022/08/16 08:51:29;;;;;;;15.07;7.80;;;;;;;25.45;55.63;100779.72;5002875;28;20120;-52
2022/08/16 08:53:54;;;;;;;15.98;7.45;;;;;;;25.53;55.83;100774.19;5005610;28;20037;-55
2022/08/16 08:56:20;;;;;;;16.63;7.10;;;;;;;25.65;55.51;100779.00;5005946;28;20125;-55
2022/08/16 08:58:45;;;;;;;10.77;6.78;;;;;;;25.70;55.24;100782.34;5006996;28;20441;-54
2022/08/16 09:01:11;;;;;;;12.27;7.90;;;;;;;25.73;54.17;100776.13;5003667;28;20038;-53
2022/08/16 09:03:37;;;;;;;12.10;6.75;;;;;;;25.84;54.58;100784.50;5005362;28;20108;-53
2022/08/16 09:06:06;;;;;;;8.82;6.60;;;;;;;25.83;54.77;100778.38;5004114;28;20120;-55
2022/08/16 09:08:33;;;;;;;11.93;7.50;;;;;;;25.87;54.26;100781.78;5003329;28;20038;-55
2022/08/16 09:10:59;;;;;;;18.48;7.85;;;;;;;25.94;53.81;100783.25;5003698;28;20114;-54
2022/08/16 09:13:25;;;;;;;9.70;7.00;;;;;;;26.00;53.94;100785.66;5003829;28;20362;-54
2022/08/16 09:15:54;;;;;;;9.93;6.50;;;;;;;26.06;54.18;100782.81;5002521;28;20042;-55
2022/08/16 09:18:23;;;;;;;11.50;6.38;;;;;;;26.20;53.23;100783.13;5004645;28;20038;-54
2022/08/16 09:20:51;;;;;;;9.25;5.75;;;;;;;26.32;52.13;100794.13;5005948;28;20087;-52
2022/08/16 09:23:17;;;;;;;9.68;5.65;;;;;;;26.40;52.02;100792.09;5004014;28;20545;-54
2022/08/16 09:25:43;;;;;;;10.88;6.00;;;;;;;26.46;51.40;100794.50;5003071;28;20029;-55
2022/08/16 09:28:08;;;;;;;8.77;6.18;;;;;;;26.50;51.55;100795.22;5003629;28;20422;-55
2022/08/16 09:30:34;;;;;;;10.43;5.65;;;;;;;26.50;51.77;100798.72;5003919;28;20040;-55
2022/08/16 09:33:00;;;;;;;12.10;6.00;;;;;;;26.62;50.59;100800.03;5004174;28;20414;-51
2022/08/16 09:35:26;;;;;;;11.20;5.57;;;;;;;26.66;51.45;100794.56;5003835;28;20033;-55
2022/08/16 09:37:51;;;;;;;11.50;5.50;;;;;;;26.73;52.21;100793.41;5004196;28;20034;-55
2022/08/16 09:40:17;;;;;;;12.65;5.95;;;;;;;26.86;50.08;100792.91;5004914;28;20029;-55
2022/08/16 09:42:43;;;;;;;8.05;5.57;;;;;;;26.96;49.89;100797.75;5004431;28;20474;-56
2022/08/16 09:45:09;;;;;;;9.45;5.68;;;;;;;27.02;49.79;100796.66;5004771;28;20029;-53
2022/08/16 09:47:39;;;;;;;7.60;4.90;;;;;;;27.10;49.03;100802.50;5004873;28;20604;-55
2022/08/16 09:50:09;;;;;;;8.77;5.60;;;;;;;27.13;48.81;100802.38;5002632;28;20040;-54
2022/08/16 09:52:36;;;;;;;9.68;4.82;;;;;;;27.20;49.17;100801.19;5006460;28;20064;-54
2022/08/16 09:55:04;;;;;;;6.95;4.50;;;;;;;27.29;49.39;100801.72;5005759;28;20053;-54
2022/08/16 09:57:30;;;;;;;8.48;5.35;;;;;;;27.37;47.90;100799.63;5005216;28;20657;-54
2022/08/16 09:59:56;;;;;;;8.45;4.88;;;;;;;27.43;47.59;100792.31;5005889;28;20109;-54
2022/08/16 10:02:23;;;;;;;10.93;5.03;;;;;;;27.45;47.88;100792.22;5002994;28;20077;-53
2022/08/16 10:04:48;;;;;;;9.45;4.90;;;;;;;27.53;47.42;100798.03;5000403;28;20438;-53
2022/08/16 10:07:14;;;;;;;9.30;5.40;;;;;;;27.56;47.21;100800.56;5002896;28;20121;-55
2022/08/16 10:09:39;;;;;;;5.55;4.72;;;;;;;27.70;46.70;100789.41;5002525;28;20046;-55
2022/08/16 10:14:49;;;;;;;15.07;5.40;;;;;;;27.80;45.92;100803.94;5005991;28;20064;-53
2022/08/16 10:17:14;;;;;;;8.60;4.63;;;;;;;27.84;45.56;100794.06;5003116;28;20018;-56
2022/08/16 10:19:40;;;;;;;8.57;4.32;;;;;;;27.94;46.64;100800.66;5004517;28;20034;-55
2022/08/16 10:22:05;;;;;;;7.20;4.40;;;;;;;28.08;46.97;100794.75;5004423;28;20072;-54
2022/08/16 10:24:31;;;;;;;8.65;4.57;;;;;;;28.12;46.20;100798.97;5004105;28;20101;-54
2022/08/16 10:26:57;;;;;;;8.75;4.50;;;;;;;28.20;45.41;100797.69;5004378;28;20029;-55
2022/08/16 10:29:23;;;;;;;7.53;4.35;;;;;;;28.30;45.39;100798.13;5005349;28;20458;-54
2022/08/16 10:31:48;;;;;;;7.07;3.92;;;;;;;28.31;43.54;100800.72;5010652;28;20474;-54
2022/08/16 10:34:14;;;;;;;5.65;4.32;;;;;;;28.41;42.05;100801.16;5006910;28;20084;-54
2022/08/16 10:36:39;;;;;;;4.90;3.70;;;;;;;28.42;41.99;100796.72;5009778;28;20406;-54
2022/08/16 10:39:04;;;;;;;5.63;4.05;;;;;;;28.46;41.29;100803.59;5008537;28;20034;-56
2022/08/16 10:41:31;;;;;;;6.85;4.07;;;;;;;28.39;42.32;100818.00;5006406;28;20034;-56
2022/08/16 10:43:57;;;;;;;4.47;3.90;;;;;;;28.38;41.39;100817.16;5008517;28;20116;-54
2022/08/16 10:46:22;;;;;;;6.05;4.03;;;;;;;28.47;42.01;100815.88;5008404;28;20437;-52
2022/08/16 10:48:48;;;;;;;5.32;4.18;;;;;;;28.55;42.23;100813.72;5006778;28;20427;-55
2022/08/16 10:51:13;;;;;;;5.50;4.13;;;;;;;28.61;42.17;100810.78;5011212;28;20077;-58
2022/08/16 10:53:39;;;;;;;7.50;4.25;;;;;;;28.73;42.66;100804.06;5007122;28;20050;-55
2022/08/16 10:56:07;;;;;;;6.07;4.40;;;;;;;28.75;41.96;100802.19;5008204;28;20112;-56
2022/08/16 10:58:33;;;;;;;;;;;;;;;28.90;43.11;100809.38;5009625;28;20480;-54
2022/08/16 11:00:58;;;;;;;4.53;4.10;;;;;;;28.94;40.96;100810.09;5005072;28;20007;-54
2022/08/16 11:03:26;;;;;;;6.82;4.13;;;;;;;29.09;41.03;100817.31;5006788;28;20034;-63
2022/08/16 11:05:51;;;;;;;8.97;4.23;;;;;;;29.23;40.60;100822.75;5002623;28;20486;-56
2022/08/16 11:08:17;;;;;;;5.70;3.97;;;;;;;29.33;40.05;100815.22;5001975;28;20034;-55
2022/08/16 11:10:45;;;;;;;6.93;3.85;;;;;;;29.43;40.67;100816.47;5003560;28;20525;-55
2022/08/16 11:13:13;;;;;;;6.28;3.75;;;;;;;29.58;39.60;100818.34;5007708;28;20427;-55
2022/08/16 11:15:41;;;;;;;7.03;3.78;;;;;;;29.67;40.33;100826.75;5008174;28;20105;-51